createdAt,value
2023-03-30T00:00:33.773Z,94060.03
2023-03-30T00:03:12.439Z,94061.25
2023-03-30T00:05:43.733Z,94061.25
2023-03-30T00:08:22.476Z,94057.00
2023-03-30T00:11:25.787Z,94065.41
2023-03-30T00:14:32.492Z,94063.94
2023-03-30T00:17:04.335Z,94056.66
2023-03-30T00:25:50.303Z,94050.94
2023-03-30T00:28:24.527Z,94046.69
2023-03-30T00:34:12.910Z,94070.44
2023-03-30T00:39:50.524Z,94068.09
2023-03-30T00:45:46.433Z,94079.34
2023-03-30T00:48:21.413Z,94078.13
2023-03-30T00:58:20.898Z,94054.59
2023-03-30T01:01:07.771Z,94061.09
2023-03-30T01:03:44.164Z,94051.09
2023-03-30T01:06:14.406Z,94061.16
2023-03-30T01:08:54.569Z,94064.38
2023-03-30T01:11:25.024Z,94057.78
2023-03-30T01:14:10.886Z,94050.84
2023-03-30T01:17:11.059Z,94048.16
2023-03-30T01:20:46.610Z,94031.16
2023-03-30T01:28:05.707Z,94022.94
2023-03-30T01:31:34.558Z,94029.00
2023-03-30T01:38:31.444Z,94023.63
2023-03-30T01:42:16.172Z,94011.31
2023-03-30T01:54:12.059Z,94005.38
2023-03-30T01:57:14.114Z,93972.44
2023-03-30T01:59:53.395Z,93981.72
2023-03-30T02:03:26.415Z,93974.00
2023-03-30T02:06:12.881Z,93977.31
2023-03-30T02:08:55.999Z,93966.91
2023-03-30T02:11:27.353Z,93983.13
2023-03-30T02:13:59.928Z,93997.75
2023-03-30T02:16:43.645Z,94016.13
2023-03-30T02:19:51.913Z,94018.59
2023-03-30T02:22:22.398Z,94036.03
2023-03-30T02:24:54.342Z,94017.84
2023-03-30T02:31:34.938Z,94026.56
2023-03-30T02:38:08.457Z,94039.22
2023-03-30T02:41:03.963Z,94037.97
2023-03-30T02:48:03.259Z,94025.63
2023-03-30T02:51:24.575Z,94022.50
2023-03-30T02:54:59.498Z,94014.91
2023-03-30T02:58:18.745Z,94016.16
2023-03-30T03:01:18.950Z,94012.47
2023-03-30T03:04:01.425Z,94008.00
2023-03-30T03:06:37.854Z,94024.13
2023-03-30T03:09:11.439Z,93999.09
2023-03-30T03:11:45.439Z,93983.91
2023-03-30T03:14:21.817Z,94008.25
2023-03-30T03:16:57.557Z,94007.59
2023-03-30T03:19:35.969Z,94004.69
2023-03-30T03:22:05.672Z,94000.78
2023-03-30T03:24:40.270Z,94010.84
2023-03-30T03:27:37.077Z,94016.53
2023-03-30T03:31:17.523Z,94012.06
2023-03-30T03:33:52.861Z,94006.59
2023-03-30T03:36:28.605Z,94005.47
2023-03-30T03:39:06.952Z,94008.84
2023-03-30T03:41:36.328Z,94003.38
2023-03-30T03:44:04.867Z,94000.69
2023-03-30T03:46:33.329Z,93988.72
2023-03-30T03:49:01.986Z,93981.69
2023-03-30T03:51:36.602Z,93992.97
2023-03-30T03:54:37.738Z,93997.34
2023-03-30T03:57:38.877Z,93981.47
2023-03-30T04:00:16.123Z,93966.03
2023-03-30T04:02:47.204Z,93958.88
2023-03-30T04:05:16.595Z,93946.81
2023-03-30T04:07:49.319Z,93940.78
2023-03-30T04:10:22.453Z,93895.31
2023-03-30T04:12:59.077Z,93889.94
2023-03-30T04:15:56.806Z,93908.59
2023-03-30T04:18:25.229Z,93889.16
2023-03-30T04:21:09.553Z,93905.81
2023-03-30T04:23:49.484Z,93902.56
2023-03-30T04:26:39.682Z,93927.34
2023-03-30T04:29:29.674Z,93905.13
2023-03-30T04:32:35.704Z,93906.81
2023-03-30T04:35:24.032Z,93902.47
2023-03-30T04:38:32.528Z,93898.69
2023-03-30T04:42:05.726Z,93893.31
2023-03-30T04:51:47.695Z,93887.63
2023-03-30T04:54:34.735Z,93891.19
2023-03-30T04:57:24.816Z,93866.72
2023-03-30T05:00:31.501Z,93841.06
2023-03-30T05:03:22.446Z,93841.97
2023-03-30T05:06:18.117Z,93851.91
2023-03-30T05:09:21.883Z,93854.91
2023-03-30T05:12:22.514Z,93870.88
2023-03-30T05:15:01.653Z,93870.88
2023-03-30T05:17:45.422Z,93865.72
2023-03-30T05:20:35.710Z,93862.59
2023-03-30T05:23:27.067Z,93867.63
2023-03-30T05:26:15.259Z,93867.50
2023-03-30T05:29:05.256Z,93880.25
2023-03-30T05:32:14.307Z,93859.59
2023-03-30T05:35:42.887Z,93865.19
2023-03-30T05:39:05.695Z,93865.19
2023-03-30T05:41:57.439Z,93854.81
2023-03-30T05:44:45.901Z,93836.59
2023-03-30T05:51:15.977Z,93824.66
2023-03-30T05:58:02.859Z,93829.53
2023-03-30T06:01:07.156Z,93828.34
2023-03-30T06:03:43.038Z,93836.25
2023-03-30T06:06:14.659Z,93836.03
2023-03-30T06:08:49.566Z,93818.84
2023-03-30T06:11:21.229Z,93806.09
2023-03-30T06:14:42.832Z,93804.41
2023-03-30T06:17:52.568Z,93810.31
2023-03-30T06:20:21.874Z,93790.69
2023-03-30T06:22:51.906Z,93789.13
2023-03-30T06:25:37.072Z,93800.84
2023-03-30T06:28:25.050Z,93819.06
2023-03-30T06:31:37.282Z,93826.44
2023-03-30T06:34:32.427Z,93837.94
2023-03-30T06:37:12.999Z,93793.38
2023-03-30T06:39:44.177Z,93807.88
2023-03-30T06:42:12.750Z,93836.00
2023-03-30T06:45:10.253Z,93839.13
2023-03-30T06:47:47.526Z,93803.25
2023-03-30T06:50:49.968Z,93806.38
2023-03-30T06:53:29.511Z,93814.44
2023-03-30T07:05:17.528Z,93820.88
2023-03-30T07:08:02.132Z,93850.28
2023-03-30T07:10:35.105Z,93862.22
2023-03-30T07:13:10.484Z,93872.19
2023-03-30T07:15:43.038Z,93865.66
2023-03-30T07:18:16.608Z,93854.88
2023-03-30T07:20:47.185Z,93855.72
2023-03-30T07:24:03.586Z,93857.44
2023-03-30T07:26:31.973Z,93849.38
2023-03-30T07:40:25.111Z,93862.03
2023-03-30T07:46:37.776Z,93873.03
2023-03-30T07:49:11.261Z,93878.94
2023-03-30T07:55:50.763Z,93876.84
2023-03-30T08:11:29.459Z,93908.78
2023-03-30T08:15:41.306Z,93924.31
2023-03-30T08:28:25.598Z,93886.69
2023-03-30T08:30:55.338Z,93901.16
2023-03-30T08:33:26.907Z,93898.22
2023-03-30T08:36:05.103Z,93898.28
2023-03-30T08:38:38.095Z,93894.91
2023-03-30T08:45:14.883Z,93909.91
2023-03-30T08:47:49.704Z,93902.34
2023-03-30T08:53:43.901Z,93911.97
2023-03-30T08:56:34.004Z,93924.28
2023-03-30T08:59:11.817Z,93933.94
2023-03-30T09:01:58.876Z,93938.56
2023-03-30T09:04:57.832Z,93936.72
2023-03-30T09:07:34.369Z,93938.47
2023-03-30T09:10:14.011Z,93951.91
2023-03-30T09:12:53.808Z,93945.75
2023-03-30T09:15:25.800Z,93942.47
2023-03-30T09:18:05.584Z,93951.47
2023-03-30T09:20:39.437Z,93954.78
2023-03-30T09:23:21.994Z,93955.78
2023-03-30T09:26:03.726Z,93959.00
2023-03-30T09:33:27.024Z,93968.41
2023-03-30T09:44:10.644Z,93963.78
2023-03-30T09:47:24.502Z,93957.41
2023-03-30T10:01:40.385Z,93970.31
2023-03-30T10:07:50.572Z,93965.47
2023-03-30T10:11:09.337Z,93962.34
2023-03-30T10:18:30.747Z,93961.50
2023-03-30T10:21:19.083Z,93961.50
2023-03-30T10:24:52.189Z,93952.81
2023-03-30T10:31:18.976Z,93930.81
2023-03-30T10:34:07.376Z,93923.78
2023-03-30T10:36:54.626Z,93930.63
2023-03-30T10:43:03.758Z,93938.78
2023-03-30T10:45:55.224Z,93940.84
2023-03-30T10:48:48.416Z,93953.16
2023-03-30T10:56:37.375Z,93957.72
2023-03-30T11:04:01.165Z,93963.56
2023-03-30T11:07:48.235Z,93968.47
2023-03-30T11:17:55.839Z,93969.47
2023-03-30T11:24:48.668Z,93960.63
2023-03-30T11:27:32.729Z,93952.47
2023-03-30T11:30:36.632Z,93960.06
2023-03-30T11:33:40.295Z,93957.56
2023-03-30T11:36:34.033Z,93952.72
2023-03-30T11:39:31.493Z,93945.78
2023-03-30T11:43:09.115Z,93960.25
2023-03-30T11:46:18.854Z,93969.41
2023-03-30T11:58:09.471Z,93975.50
2023-03-30T12:05:52.474Z,93970.53
2023-03-30T12:08:40.290Z,93956.25
2023-03-30T12:15:53.535Z,93943.66
2023-03-30T12:18:50.200Z,93941.97
2023-03-30T12:21:22.933Z,93951.84
2023-03-30T12:40:22.849Z,93946.78
2023-03-30T12:43:23.146Z,93939.84
2023-03-30T12:46:20.232Z,93944.16
2023-03-30T12:49:49.052Z,93936.97
2023-03-30T12:56:36.409Z,93936.22
2023-03-30T12:59:26.196Z,93932.94
2023-03-30T13:03:21.130Z,93936.31
2023-03-30T13:06:15.706Z,93922.00
2023-03-30T13:08:49.256Z,93913.78
2023-03-30T13:11:23.466Z,93912.22
2023-03-30T13:13:55.763Z,93910.31
2023-03-30T13:17:37.762Z,93908.06
2023-03-30T13:20:58.112Z,93898.91
2023-03-30T13:23:32.906Z,93891.50
2023-03-30T13:26:34.634Z,93898.22
2023-03-30T13:29:20.376Z,93896.75
2023-03-30T13:32:11.543Z,93895.91
2023-03-30T13:34:54.860Z,93897.53
2023-03-30T13:38:03.497Z,93903.44
2023-03-30T13:41:03.998Z,93904.19
2023-03-30T13:43:59.162Z,93879.41
2023-03-30T13:46:31.299Z,93884.44
2023-03-30T13:49:43.710Z,93897.50
2023-03-30T13:52:55.041Z,93869.97
2023-03-30T14:00:36.655Z,93873.88
2023-03-30T14:04:05.166Z,93868.84
2023-03-30T14:06:57.555Z,93869.78
2023-03-30T14:10:15.004Z,93873.22
2023-03-30T14:12:53.009Z,93858.91
2023-03-30T14:15:45.356Z,93862.38
2023-03-30T14:18:33.656Z,93856.41
2023-03-30T14:21:12.068Z,93850.22
2023-03-30T14:23:55.424Z,93847.34
2023-03-30T14:26:43.554Z,93834.41
2023-03-30T14:29:45.235Z,93853.50
2023-03-30T14:32:26.250Z,93851.16
2023-03-30T14:35:26.587Z,93828.47
2023-03-30T14:38:16.006Z,93827.97
2023-03-30T14:41:44.893Z,93819.41
2023-03-30T14:47:35.920Z,93791.34
2023-03-30T14:50:19.449Z,93815.16
2023-03-30T14:53:00.371Z,93808.16
2023-03-30T14:55:38.437Z,93829.72
2023-03-30T14:58:15.724Z,93830.31
2023-03-30T15:01:22.942Z,93828.75
2023-03-30T15:07:35.486Z,93817.97
2023-03-30T15:10:08.737Z,93819.88
2023-03-30T15:12:49.666Z,93837.88
2023-03-30T15:15:30.204Z,93817.03
2023-03-30T15:22:54.833Z,93808.31
2023-03-30T15:26:23.133Z,93815.69
2023-03-30T15:29:01.266Z,93819.22
2023-03-30T15:31:33.929Z,93827.59
2023-03-30T15:34:37.681Z,93829.47
2023-03-30T15:37:25.230Z,93817.91
2023-03-30T15:40:00.830Z,93835.47
2023-03-30T15:42:34.644Z,93832.66
2023-03-30T15:46:48.353Z,93828.69
2023-03-30T15:49:55.633Z,93822.13
2023-03-30T15:52:26.512Z,93821.34
2023-03-30T15:54:55.466Z,93801.38
2023-03-30T15:57:29.852Z,93835.69
2023-03-30T16:00:01.518Z,93841.09
2023-03-30T16:02:57.580Z,93834.03
2023-03-30T16:05:30.918Z,93838.84
2023-03-30T16:07:58.103Z,93840.50
2023-03-30T16:10:28.600Z,93845.66
2023-03-30T16:12:56.803Z,93836.03
2023-03-30T16:15:26.529Z,93829.78
2023-03-30T16:17:53.200Z,93830.22
2023-03-30T16:20:26.260Z,93832.28
2023-03-30T16:22:54.281Z,93840.94
2023-03-30T16:25:26.040Z,93840.16
2023-03-30T16:28:01.051Z,93826.25
2023-03-30T16:30:34.167Z,93811.50
2023-03-30T16:33:04.929Z,93825.25
2023-03-30T16:35:31.794Z,93831.66
2023-03-30T16:37:58.759Z,93827.97
2023-03-30T16:40:33.413Z,93830.53
2023-03-30T16:43:00.324Z,93836.91
2023-03-30T16:45:28.139Z,93826.84
2023-03-30T16:47:55.092Z,93828.94
2023-03-30T16:50:36.180Z,93838.09
2023-03-30T16:53:02.994Z,93840.97
2023-03-30T16:55:29.634Z,93835.66
2023-03-30T16:57:56.247Z,93839.75
2023-03-30T17:00:26.521Z,93851.09
2023-03-30T17:02:53.399Z,93842.81
2023-03-30T17:05:20.336Z,93835.78
2023-03-30T17:07:47.293Z,93842.19
2023-03-30T17:10:28.105Z,93856.69
2023-03-30T17:12:55.822Z,93853.38
2023-03-30T17:15:24.387Z,93852.78
2023-03-30T17:17:52.612Z,93860.41
2023-03-30T17:20:29.669Z,93856.94
2023-03-30T17:22:56.468Z,93860.25
2023-03-30T17:25:26.406Z,93867.88
2023-03-30T17:27:57.244Z,93870.38
2023-03-30T17:30:34.546Z,93874.97
2023-03-30T17:33:01.459Z,93883.97
2023-03-30T17:35:28.511Z,93885.34
2023-03-30T17:37:59.814Z,93883.25
2023-03-30T17:40:28.994Z,93883.94
2023-03-30T17:42:56.199Z,93894.94
2023-03-30T17:45:26.650Z,93884.09
2023-03-30T17:47:53.519Z,93883.56
2023-03-30T17:50:28.151Z,93884.69
2023-03-30T17:52:56.120Z,93893.75
2023-03-30T17:55:25.665Z,93891.31
2023-03-30T17:57:52.995Z,93896.50
2023-03-30T18:00:25.725Z,93900.53
2023-03-30T18:02:53.426Z,93898.78
2023-03-30T18:05:22.770Z,93902.16
2023-03-30T18:07:49.473Z,93897.47
2023-03-30T18:10:28.294Z,93898.59
2023-03-30T18:12:55.210Z,93903.50
2023-03-30T18:15:25.887Z,93894.34
2023-03-30T18:17:52.955Z,93897.72
2023-03-30T18:20:28.224Z,93898.50
2023-03-30T18:22:54.849Z,93900.72
2023-03-30T18:25:31.609Z,93909.56
2023-03-30T18:27:59.686Z,93912.13
2023-03-30T18:30:31.144Z,93923.97
2023-03-30T18:32:58.740Z,93925.88
2023-03-30T18:35:29.441Z,93927.34
2023-03-30T18:37:57.503Z,93928.03
2023-03-30T18:40:32.083Z,93929.16
2023-03-30T18:43:00.008Z,93926.69
2023-03-30T18:45:36.005Z,93933.53
2023-03-30T18:48:03.236Z,93931.50
2023-03-30T18:50:38.827Z,93940.34
2023-03-30T18:53:08.050Z,93929.03
2023-03-30T18:55:36.793Z,93924.66
2023-03-30T18:58:06.552Z,93927.72
2023-03-30T19:00:35.085Z,93927.16
2023-03-30T19:03:02.638Z,93933.19
2023-03-30T19:05:30.724Z,93938.88
2023-03-30T19:07:57.772Z,93942.56
2023-03-30T19:10:27.627Z,93939.88
2023-03-30T19:12:55.461Z,93941.31
2023-03-30T19:15:26.968Z,93945.13
2023-03-30T19:17:53.903Z,93946.16
2023-03-30T19:20:23.434Z,93951.97
2023-03-30T19:22:50.621Z,93951.19
2023-03-30T19:25:19.161Z,93955.31
2023-03-30T19:27:59.676Z,93952.63
2023-03-30T19:30:32.290Z,93955.19
2023-03-30T19:33:01.673Z,93955.19
2023-03-30T19:35:29.034Z,93953.94
2023-03-30T19:37:56.578Z,93962.78
2023-03-30T19:40:24.041Z,93965.00
2023-03-30T19:42:51.366Z,93965.34
2023-03-30T19:45:21.475Z,93959.53
2023-03-30T19:47:48.238Z,93967.13
2023-03-30T19:50:18.422Z,93963.97
2023-03-30T19:52:50.799Z,93965.34
2023-03-30T19:55:19.189Z,93962.22
2023-03-30T19:57:46.295Z,93957.97
2023-03-30T20:00:17.801Z,93958.28
2023-03-30T20:02:48.310Z,93955.50
2023-03-30T20:05:16.261Z,93957.72
2023-03-30T20:07:44.984Z,93959.63
2023-03-30T20:10:14.465Z,93962.63
2023-03-30T20:12:41.075Z,93952.56
2023-03-30T20:15:09.635Z,93949.78
2023-03-30T20:17:37.903Z,93943.53
2023-03-30T20:20:09.438Z,93940.72
2023-03-30T20:22:38.967Z,93949.88
2023-03-30T20:25:07.871Z,93964.38
2023-03-30T20:27:35.917Z,93959.03
2023-03-30T20:30:05.807Z,93952.09
2023-03-30T20:32:33.857Z,93947.41
2023-03-30T20:35:00.638Z,93939.25
2023-03-30T20:37:27.343Z,93934.13
2023-03-30T20:39:53.944Z,93935.91
2023-03-30T20:42:26.229Z,93926.97
2023-03-30T20:44:53.546Z,93929.19
2023-03-30T20:47:26.152Z,93933.75
2023-03-30T20:49:55.758Z,93928.47
2023-03-30T20:52:23.920Z,93926.56
2023-03-30T20:54:52.470Z,93937.19
2023-03-30T20:57:20.539Z,93928.84
2023-03-30T20:59:50.070Z,93940.28
2023-03-30T21:02:17.896Z,93939.09
2023-03-30T21:04:45.240Z,93933.59
2023-03-30T21:07:12.572Z,93938.50
2023-03-30T21:09:39.594Z,93922.31
2023-03-30T21:12:07.748Z,93925.97
2023-03-30T21:14:34.330Z,93930.22
2023-03-30T21:17:01.272Z,93924.28
2023-03-30T21:19:27.982Z,93921.16
2023-03-30T21:21:54.606Z,93920.25
2023-03-30T21:24:21.431Z,93917.13
2023-03-30T21:26:48.073Z,93910.22
2023-03-30T21:29:14.663Z,93918.44
2023-03-30T21:31:41.686Z,93906.38
2023-03-30T21:34:10.195Z,93899.00
2023-03-30T21:36:37.050Z,93902.03
2023-03-30T21:39:03.835Z,93898.88
2023-03-30T21:41:30.584Z,93891.50
2023-03-30T21:43:57.299Z,93887.59
2023-03-30T21:46:26.054Z,93887.59
2023-03-30T21:48:54.529Z,93888.72
2023-03-30T21:51:24.891Z,93877.22
2023-03-30T21:53:53.176Z,93880.22
2023-03-30T21:56:22.448Z,93880.22
2023-03-30T21:58:49.920Z,93871.63
2023-03-30T22:01:17.608Z,93880.88
2023-03-30T22:03:45.874Z,93876.31
2023-03-30T22:06:15.061Z,93868.63
2023-03-30T22:08:42.047Z,93861.03
2023-03-30T22:11:15.371Z,93854.41
2023-03-30T22:13:43.026Z,93848.84
2023-03-30T22:16:16.423Z,93839.72
2023-03-30T22:18:44.374Z,93834.69
2023-03-30T22:21:17.744Z,93832.34
2023-03-30T22:23:45.268Z,93834.69
2023-03-30T22:26:12.908Z,93829.00
2023-03-30T22:28:39.805Z,93819.44
2023-03-30T22:31:12.403Z,93814.06
2023-03-30T22:33:39.644Z,93805.47
2023-03-30T22:36:15.172Z,93802.34
2023-03-30T22:38:42.518Z,93803.00
2023-03-30T22:41:10.340Z,93801.88
2023-03-30T22:43:37.638Z,93796.53
2023-03-30T22:46:06.093Z,93797.66
2023-03-30T22:48:33.554Z,93799.22
2023-03-30T22:51:04.569Z,93795.75
2023-03-30T22:53:32.073Z,93786.16
2023-03-30T22:55:58.819Z,93787.28
2023-03-30T22:58:25.518Z,93793.09
2023-03-30T23:00:52.442Z,93785.38
2023-03-30T23:03:19.204Z,93773.25
2023-03-30T23:05:52.898Z,93775.47
2023-03-30T23:08:20.055Z,93775.03
2023-03-30T23:10:46.810Z,93771.44
2023-03-30T23:13:14.175Z,93773.31
2023-03-30T23:15:40.991Z,93769.00
2023-03-30T23:18:07.876Z,93764.75
2023-03-30T23:20:34.818Z,93758.31
2023-03-30T23:23:01.735Z,93755.81
2023-03-30T23:25:28.524Z,93747.84
2023-03-30T23:27:56.753Z,93750.28
2023-03-30T23:30:23.558Z,93745.03
2023-03-30T23:32:51.016Z,93737.63
2023-03-30T23:35:17.698Z,93743.25
2023-03-30T23:37:45.496Z,93739.59
2023-03-30T23:40:12.806Z,93734.22
2023-03-30T23:42:39.416Z,93740.50
2023-03-30T23:45:06.860Z,93733.56
2023-03-30T23:47:33.716Z,93722.09
2023-03-30T23:50:01.000Z,93737.38
2023-03-30T23:52:28.158Z,93740.50
2023-03-30T23:54:54.894Z,93736.91
2023-03-30T23:57:21.881Z,93735.34
2023-03-30T23:59:48.741Z,93725.97
